createdAt,value
2018-04-14T00:00:51.155Z,993.52
2018-04-14T00:02:00.892Z,993.53
2018-04-14T00:03:10.885Z,993.52
2018-04-14T00:04:20.876Z,993.54
2018-04-14T00:05:30.874Z,993.56
2018-04-14T00:06:40.872Z,993.49
2018-04-14T00:07:50.869Z,993.44
2018-04-14T00:09:00.862Z,993.5
2018-04-14T00:10:10.332Z,993.46
2018-04-14T00:11:20.126Z,993.48
2018-04-14T00:12:30.129Z,993.42
2018-04-14T00:13:40.135Z,993.45
2018-04-14T00:14:49.867Z,993.41
2018-04-14T00:15:59.868Z,993.41
2018-04-14T00:17:09.705Z,993.42
2018-04-14T00:18:19.704Z,993.39
2018-04-14T00:19:29.443Z,993.37
2018-04-14T00:20:39.179Z,993.39
2018-04-14T00:21:49.181Z,993.39
2018-04-14T00:22:58.916Z,993.36
2018-04-14T00:24:08.649Z,993.34
2018-04-14T00:25:18.383Z,993.33
2018-04-14T00:26:27.850Z,993.38
2018-04-14T00:27:37.586Z,993.35
2018-04-14T00:28:47.638Z,993.39
2018-04-14T00:29:57.374Z,993.38
2018-04-14T00:31:06.573Z,993.36
2018-04-14T00:32:16.302Z,993.36
2018-04-14T00:33:26.036Z,993.33
2018-04-14T00:34:35.511Z,993.31
2018-04-14T00:35:45.519Z,993.3
2018-04-14T00:36:55.513Z,993.33
2018-04-14T00:38:05.246Z,993.31
2018-04-14T00:39:15.242Z,993.29
2018-04-14T00:40:25.243Z,993.36
2018-04-14T00:41:35.240Z,993.32
2018-04-14T00:42:44.970Z,993.32
2018-04-14T00:43:54.740Z,993.33
2018-04-14T00:45:04.473Z,993.31
2018-04-14T00:46:14.477Z,993.32
2018-04-14T00:47:24.490Z,993.28
2018-04-14T00:48:34.497Z,993.27
2018-04-14T00:49:44.496Z,993.29
2018-04-14T00:50:54.237Z,993.27
2018-04-14T00:52:04.244Z,993.22
2018-04-14T00:53:13.980Z,993.25
2018-04-14T00:54:23.981Z,993.23
2018-04-14T00:55:33.718Z,993.22
2018-04-14T00:56:43.720Z,993.23
2018-04-14T00:57:53.728Z,993.26
2018-04-14T00:59:03.458Z,993.27
2018-04-14T01:00:13.206Z,993.25
2018-04-14T01:01:23.211Z,993.21
2018-04-14T01:02:33.213Z,993.25
2018-04-14T01:03:43.210Z,993.22
2018-04-14T01:04:52.944Z,993.21
2018-04-14T01:06:02.946Z,993.24
2018-04-14T01:07:12.948Z,993.23
2018-04-14T01:08:22.944Z,993.23
2018-04-14T01:09:32.962Z,993.17
2018-04-14T01:10:42.440Z,993.22
2018-04-14T01:11:51.915Z,993.24
2018-04-14T01:13:01.913Z,993.22
2018-04-14T01:14:11.656Z,993.24
2018-04-14T01:15:21.651Z,993.17
2018-04-14T01:16:31.384Z,993.19
2018-04-14T01:17:41.386Z,993.2
2018-04-14T01:18:51.128Z,993.16
2018-04-14T01:20:01.125Z,993.15
2018-04-14T01:21:10.585Z,993.17
2018-04-14T01:22:20.599Z,993.15
2018-04-14T01:23:30.598Z,993.15
2018-04-14T01:24:40.606Z,993.13
2018-04-14T01:25:50.611Z,993.11
2018-04-14T01:27:00.077Z,993.14
2018-04-14T01:28:09.553Z,993.13
2018-04-14T01:29:19.554Z,993.11
2018-04-14T01:30:29.290Z,993.08
2018-04-14T01:31:38.765Z,993.08
2018-04-14T01:32:48.500Z,993.01
2018-04-14T01:33:58.502Z,993.03
2018-04-14T01:35:08.514Z,993.03
2018-04-14T01:36:18.518Z,993.03
2018-04-14T01:37:28.529Z,992.99
2018-04-14T01:38:38.536Z,993
2018-04-14T01:39:48.530Z,992.98
2018-04-14T01:40:58.527Z,992.92
2018-04-14T01:42:08.269Z,992.93
2018-04-14T01:43:17.740Z,992.96
2018-04-14T01:44:27.739Z,992.96
2018-04-14T01:45:37.744Z,992.94
2018-04-14T01:46:47.491Z,992.97
2018-04-14T01:47:57.506Z,992.95
2018-04-14T01:49:06.701Z,992.95
2018-04-14T01:50:17.045Z,992.92
2018-04-14T01:51:26.244Z,992.95
2018-04-14T01:52:35.992Z,992.99
2018-04-14T01:53:45.999Z,992.92
2018-04-14T01:54:55.462Z,992.91
2018-04-14T01:56:04.936Z,992.89
2018-04-14T01:57:14.934Z,992.88
2018-04-14T01:58:24.668Z,992.85
2018-04-14T01:59:34.676Z,992.8
2018-04-14T02:00:44.138Z,992.78
2018-04-14T02:01:53.874Z,992.84
2018-04-14T02:03:03.606Z,992.8
2018-04-14T02:04:13.333Z,992.81
2018-04-14T02:05:23.334Z,992.79
2018-04-14T02:06:33.067Z,992.8
2018-04-14T02:07:43.070Z,992.76
2018-04-14T02:08:52.800Z,992.81
2018-04-14T02:10:01.998Z,992.76
2018-04-14T02:11:11.726Z,992.76
2018-04-14T02:12:21.464Z,992.7
2018-04-14T02:13:31.196Z,992.72
2018-04-14T02:14:41.201Z,992.75
2018-04-14T02:15:51.201Z,992.71
2018-04-14T02:17:01.218Z,992.69
2018-04-14T02:18:10.949Z,992.7
2018-04-14T02:19:20.417Z,992.73
2018-04-14T02:20:30.417Z,992.7
2018-04-14T02:21:40.152Z,992.72
2018-04-14T02:22:49.622Z,992.69
2018-04-14T02:23:59.088Z,992.7
2018-04-14T02:25:09.138Z,992.73
2018-04-14T02:26:18.870Z,992.7
2018-04-14T02:27:28.600Z,992.7
2018-04-14T02:28:38.620Z,992.72
2018-04-14T02:29:48.358Z,992.69
2018-04-14T02:30:58.360Z,992.69
2018-04-14T02:32:08.370Z,992.67
2018-04-14T02:33:18.400Z,992.67
2018-04-14T02:34:28.147Z,992.68
2018-04-14T02:35:38.158Z,992.71
2018-04-14T02:36:47.916Z,992.72
2018-04-14T02:37:57.926Z,992.74
2018-04-14T02:39:07.668Z,992.71
2018-04-14T02:40:17.140Z,992.73
2018-04-14T02:41:26.870Z,992.71
2018-04-14T02:42:36.874Z,992.71
2018-04-14T02:43:46.341Z,992.71
2018-04-14T02:44:56.364Z,992.74
2018-04-14T02:46:05.575Z,992.72
2018-04-14T02:47:15.309Z,992.75
2018-04-14T02:48:25.310Z,992.78
2018-04-14T02:49:35.350Z,992.76
2018-04-14T02:50:45.107Z,992.75
2018-04-14T02:51:54.841Z,992.72
2018-04-14T02:53:04.332Z,992.75
2018-04-14T02:54:14.337Z,992.74
2018-04-14T02:55:24.072Z,992.73
2018-04-14T02:56:34.080Z,992.71
2018-04-14T02:57:44.083Z,992.66
2018-04-14T02:58:54.082Z,992.67
2018-04-14T03:00:04.093Z,992.66
2018-04-14T03:04:23.293Z,992.71
2018-04-14T03:05:32.602Z,992.67
2018-04-14T03:06:42.620Z,992.66
2018-04-14T03:07:52.092Z,992.67
2018-04-14T03:09:02.093Z,992.7
2018-04-14T03:10:11.866Z,992.64
2018-04-14T03:11:22.022Z,992.67
2018-04-14T03:12:31.754Z,992.63
2018-04-14T03:13:40.684Z,992.61
2018-04-14T03:14:50.678Z,992.61
2018-04-14T03:16:00.420Z,992.59
2018-04-14T03:17:10.150Z,992.59
2018-04-14T03:18:20.158Z,992.57
2018-04-14T03:19:29.889Z,992.59
2018-04-14T03:20:39.885Z,992.56
2018-04-14T03:21:49.884Z,992.57
2018-04-14T03:22:59.616Z,992.6
2018-04-14T03:24:08.821Z,992.59
2018-04-14T03:25:18.823Z,992.57
2018-04-14T03:26:28.293Z,992.55
2018-04-14T03:27:38.292Z,992.51
2018-04-14T03:28:48.022Z,992.52
2018-04-14T03:29:58.019Z,992.5
2018-04-14T03:31:07.760Z,992.48
2018-04-14T03:32:17.309Z,992.48
2018-04-14T03:33:27.307Z,992.44
2018-04-14T03:34:37.414Z,992.47
2018-04-14T03:35:47.149Z,992.5
2018-04-14T03:36:57.153Z,992.45
2018-04-14T03:38:07.157Z,992.49
2018-04-14T03:39:16.888Z,992.48
2018-04-14T03:40:26.886Z,992.47
2018-04-14T03:41:35.823Z,992.49
2018-04-14T03:42:45.834Z,992.48
2018-04-14T03:43:55.831Z,992.46
2018-04-14T03:45:05.566Z,992.43
2018-04-14T03:46:15.562Z,992.47
2018-04-14T03:47:25.287Z,992.49
2018-04-14T03:48:35.017Z,992.46
2018-04-14T03:49:44.476Z,992.46
2018-04-14T03:50:53.943Z,992.45
2018-04-14T03:52:03.948Z,992.46
2018-04-14T03:53:13.689Z,992.46
2018-04-14T03:54:23.857Z,992.53
2018-04-14T03:55:33.875Z,992.49
2018-04-14T03:56:43.615Z,992.52
2018-04-14T03:57:53.089Z,992.52
2018-04-14T03:59:03.097Z,992.55
2018-04-14T04:00:13.096Z,992.53
2018-04-14T04:01:22.833Z,992.54
2018-04-14T04:02:32.838Z,992.47
2018-04-14T04:03:42.036Z,992.5
2018-04-14T04:04:51.507Z,992.49
2018-04-14T04:06:01.245Z,992.46
2018-04-14T04:07:10.977Z,992.48
2018-04-14T04:08:20.977Z,992.45
2018-04-14T04:09:30.979Z,992.42
2018-04-14T04:10:40.716Z,992.43
2018-04-14T04:11:50.181Z,992.43
2018-04-14T04:13:00.185Z,992.4
2018-04-14T04:14:09.916Z,992.38
2018-04-14T04:15:19.651Z,992.4
2018-04-14T04:16:29.123Z,992.4
2018-04-14T04:17:39.121Z,992.39
2018-04-14T04:18:48.857Z,992.36
2018-04-14T04:19:58.593Z,992.38
2018-04-14T04:21:08.068Z,992.35
2018-04-14T04:22:18.117Z,992.34
2018-04-14T04:23:28.121Z,992.32
2018-04-14T04:24:38.145Z,992.31
2018-04-14T04:25:47.876Z,992.27
2018-04-14T04:26:57.917Z,992.32
2018-04-14T04:28:07.416Z,992.29
2018-04-14T04:29:17.628Z,992.27
2018-04-14T04:30:27.098Z,992.3
2018-04-14T04:31:36.834Z,992.25
2018-04-14T04:32:46.351Z,992.26
2018-04-14T04:33:56.083Z,992.28
2018-04-14T04:35:05.812Z,992.29
2018-04-14T04:36:15.803Z,992.24
2018-04-14T04:37:25.536Z,992.22
2018-04-14T04:38:35.268Z,992.19
2018-04-14T04:39:45.314Z,992.23
2018-04-14T04:40:55.313Z,992.24
2018-04-14T04:42:04.534Z,992.25
2018-04-14T04:43:14.530Z,992.23
2018-04-14T04:44:24.529Z,992.3
2018-04-14T04:45:34.265Z,992.29
2018-04-14T04:46:44.272Z,992.25
2018-04-14T04:47:53.743Z,992.27
2018-04-14T04:49:03.206Z,992.26
2018-04-14T04:50:13.205Z,992.25
2018-04-14T04:51:23.209Z,992.27
2018-04-14T04:52:33.209Z,992.27
2018-04-14T04:53:42.938Z,992.32
2018-04-14T04:54:52.673Z,992.33
2018-04-14T04:56:02.150Z,992.34
2018-04-14T04:57:11.895Z,992.33
2018-04-14T04:58:21.887Z,992.29
2018-04-14T04:59:31.629Z,992.36
2018-04-14T05:00:41.367Z,992.34
2018-04-14T05:01:51.099Z,992.32
2018-04-14T05:03:00.565Z,992.32
2018-04-14T05:04:10.571Z,992.33
2018-04-14T05:05:20.305Z,992.38
2018-04-14T05:06:30.031Z,992.36
2018-04-14T05:07:39.766Z,992.37
2018-04-14T05:08:49.831Z,992.36
2018-04-14T05:09:59.827Z,992.37
2018-04-14T05:11:09.025Z,992.38
2018-04-14T05:12:19.047Z,992.42
2018-04-14T05:13:28.517Z,992.39
2018-04-14T05:14:38.256Z,992.38
2018-04-14T05:15:48.253Z,992.32
2018-04-14T05:16:56.919Z,992.38
2018-04-14T05:18:06.935Z,992.37
2018-04-14T05:19:16.668Z,992.37
2018-04-14T05:20:26.671Z,992.37
2018-04-14T05:21:36.411Z,992.39
2018-04-14T05:22:45.875Z,992.4
2018-04-14T05:23:55.602Z,992.4
2018-04-14T05:25:05.622Z,992.37
2018-04-14T05:26:15.359Z,992.35
2018-04-14T05:27:25.359Z,992.41
2018-04-14T05:28:35.105Z,992.39
2018-04-14T05:29:45.116Z,992.33
2018-04-14T05:30:54.859Z,992.37
2018-04-14T05:32:04.594Z,992.33
2018-04-14T05:33:14.328Z,992.34
2018-04-14T05:34:24.329Z,992.35
2018-04-14T05:35:33.800Z,992.34
2018-04-14T05:36:43.800Z,992.41
2018-04-14T05:37:53.535Z,992.4
2018-04-14T05:39:03.266Z,992.42
2018-04-14T05:40:12.464Z,992.4
2018-04-14T05:41:22.194Z,992.37
2018-04-14T05:42:31.935Z,992.37
2018-04-14T05:43:41.723Z,992.39
2018-04-14T05:44:51.719Z,992.4
2018-04-14T05:46:01.727Z,992.4
2018-04-14T05:47:11.461Z,992.37
2018-04-14T05:48:21.190Z,992.37
2018-04-14T05:49:30.926Z,992.36
2018-04-14T05:50:40.929Z,992.38
2018-04-14T05:51:50.657Z,992.36
2018-04-14T05:53:00.132Z,992.42
2018-04-14T05:54:10.135Z,992.45
2018-04-14T05:55:20.148Z,992.44
2018-04-14T05:56:29.885Z,992.45
2018-04-14T05:57:39.629Z,992.43
2018-04-14T05:58:49.371Z,992.42
2018-04-14T05:59:59.206Z,992.43
2018-04-14T06:01:08.670Z,992.45
2018-04-14T06:02:18.410Z,992.41
2018-04-14T06:03:28.421Z,992.44
2018-04-14T06:04:38.433Z,992.41
2018-04-14T06:05:48.267Z,992.42
2018-04-14T06:06:57.998Z,992.45
2018-04-14T06:08:08.001Z,992.45
2018-04-14T06:09:18.011Z,992.44
2018-04-14T06:10:28.126Z,992.4
2018-04-14T06:11:38.123Z,992.46
2018-04-14T06:12:47.854Z,992.49
2018-04-14T06:13:57.598Z,992.48
2018-04-14T06:15:07.606Z,992.49
2018-04-14T06:16:17.335Z,992.51
2018-04-14T06:17:27.350Z,992.49
2018-04-14T06:18:37.090Z,992.5
2018-04-14T06:19:46.834Z,992.46
2018-04-14T06:20:56.315Z,992.5
2018-04-14T06:22:06.362Z,992.52
2018-04-14T06:23:16.842Z,992.51
2018-04-14T06:24:26.853Z,992.47
2018-04-14T06:25:36.872Z,992.47
2018-04-14T06:26:46.351Z,992.47
2018-04-14T06:27:56.080Z,992.48
2018-04-14T06:29:05.547Z,992.49
2018-04-14T06:30:15.548Z,992.43
2018-04-14T06:31:25.551Z,992.4
2018-04-14T06:32:35.330Z,992.35
2018-04-14T06:33:45.463Z,992.37
2018-04-14T06:34:55.633Z,992.39
2018-04-14T06:36:05.367Z,992.32
2018-04-14T06:37:15.379Z,992.27
2018-04-14T06:38:25.129Z,992.23
2018-04-14T06:39:34.856Z,992.26
2018-04-14T06:40:44.589Z,992.24
2018-04-14T06:41:54.584Z,992.24
2018-04-14T06:43:04.053Z,992.2
2018-04-14T06:44:13.790Z,992.22
2018-04-14T06:45:23.796Z,992.18
2018-04-14T06:46:33.797Z,992.14
2018-04-14T06:47:43.269Z,992.11
2018-04-14T06:48:52.745Z,992.14
2018-04-14T06:50:02.214Z,992.12
2018-04-14T06:51:12.139Z,992.12
2018-04-14T06:52:21.870Z,992.14
2018-04-14T06:53:31.935Z,992.12
2018-04-14T06:54:41.932Z,992.22
2018-04-14T06:55:51.704Z,992.18
2018-04-14T06:57:01.597Z,992.2
2018-04-14T06:58:10.801Z,992.21
2018-04-14T06:59:20.800Z,992.17
2018-04-14T07:00:30.586Z,992.22
2018-04-14T07:01:40.098Z,992.24
2018-04-14T07:02:49.831Z,992.24
2018-04-14T07:03:59.562Z,992.21
2018-04-14T07:05:09.310Z,992.21
2018-04-14T07:06:19.314Z,992.26
2018-04-14T07:07:28.778Z,992.27
2018-04-14T07:08:38.783Z,992.23
2018-04-14T07:09:48.524Z,992.25
2018-04-14T07:10:58.523Z,992.2
2018-04-14T07:12:08.255Z,992.23
2018-04-14T07:13:18.253Z,992.22
2018-04-14T07:14:27.981Z,992.27
2018-04-14T07:15:37.712Z,992.29
2018-04-14T07:16:47.444Z,992.23
2018-04-14T07:17:56.910Z,992.22
2018-04-14T07:19:06.386Z,992.24
2018-04-14T07:20:16.117Z,992.27
2018-04-14T07:21:26.121Z,992.26
2018-04-14T07:22:36.131Z,992.27
2018-04-14T07:23:46.135Z,992.23
2018-04-14T07:24:55.867Z,992.26
2018-04-14T07:26:05.345Z,992.23
2018-04-14T07:27:14.812Z,992.22
2018-04-14T07:28:24.549Z,992.28
2018-04-14T07:29:34.556Z,992.26
2018-04-14T07:30:44.297Z,992.22
2018-04-14T07:31:53.497Z,992.26
2018-04-14T07:33:03.524Z,992.27
2018-04-14T07:34:13.262Z,992.26
2018-04-14T07:35:23.264Z,992.25
2018-04-14T07:36:32.997Z,992.21
2018-04-14T07:37:43.018Z,992.28
2018-04-14T07:38:52.494Z,992.28
2018-04-14T07:40:01.698Z,992.28
2018-04-14T07:41:11.179Z,992.27
2018-04-14T07:42:21.185Z,992.3
2018-04-14T07:43:30.918Z,992.34
2018-04-14T07:44:40.934Z,992.3
2018-04-14T07:45:50.404Z,992.34
2018-04-14T07:47:00.413Z,992.27
2018-04-14T07:48:10.158Z,992.28
2018-04-14T07:49:20.156Z,992.3
2018-04-14T07:50:29.890Z,992.28
2018-04-14T07:51:39.945Z,992.3
2018-04-14T07:52:50.017Z,992.3
2018-04-14T07:53:59.757Z,992.3
2018-04-14T07:55:09.499Z,992.33
2018-04-14T07:56:19.247Z,992.28
2018-04-14T07:57:28.989Z,992.3
2018-04-14T07:58:39.051Z,992.26
2018-04-14T07:59:48.787Z,992.28
2018-04-14T08:00:58.799Z,992.29
2018-04-14T08:02:08.854Z,992.3
2018-04-14T08:03:18.324Z,992.33
2018-04-14T08:04:28.060Z,992.29
2018-04-14T08:05:38.078Z,992.27
2018-04-14T08:06:48.080Z,992.28
2018-04-14T08:07:57.825Z,992.25
2018-04-14T08:09:07.564Z,992.28
2018-04-14T08:10:17.566Z,992.29
2018-04-14T08:11:26.766Z,992.32
2018-04-14T08:12:36.866Z,992.28
2018-04-14T08:13:46.596Z,992.26
2018-04-14T08:14:56.060Z,992.3
2018-04-14T08:16:05.536Z,992.27
2018-04-14T08:17:14.471Z,992.26
2018-04-14T08:18:24.486Z,992.26
2018-04-14T08:19:34.616Z,992.19
2018-04-14T08:20:44.356Z,992.2
2018-04-14T08:21:54.091Z,992.15
2018-04-14T08:23:03.827Z,992.18
2018-04-14T08:24:13.828Z,992.16
2018-04-14T08:25:23.871Z,992.12
2018-04-14T08:26:33.605Z,992.14
2018-04-14T08:27:43.615Z,992.18
2018-04-14T08:28:53.088Z,992.15
2018-04-14T08:30:02.593Z,992.15
2018-04-14T08:31:12.192Z,992.21
2018-04-14T08:32:21.659Z,992.17
2018-04-14T08:33:31.124Z,992.17
2018-04-14T08:34:40.597Z,992.14
2018-04-14T08:35:50.601Z,992.16
2018-04-14T08:37:00.599Z,992.2
2018-04-14T08:38:10.333Z,992.21
2018-04-14T08:39:20.341Z,992.2
2018-04-14T08:40:30.341Z,992.17
2018-04-14T08:41:40.073Z,992.15
2018-04-14T08:42:49.816Z,992.12
2018-04-14T08:43:59.566Z,992.08
2018-04-14T08:45:09.302Z,992.07
2018-04-14T08:46:19.087Z,992.07
2018-04-14T08:47:29.122Z,992.08
2018-04-14T08:48:39.125Z,992.06
2018-04-14T08:49:48.590Z,992.04
2018-04-14T08:50:58.332Z,992.06
2018-04-14T08:52:08.337Z,992.01
2018-04-14T08:53:17.807Z,992.01
2018-04-14T08:54:28.117Z,991.97
2018-04-14T08:55:37.858Z,991.99
2018-04-14T08:56:47.600Z,991.95
2018-04-14T08:57:57.605Z,991.99
2018-04-14T08:59:07.348Z,992.01
2018-04-14T09:00:17.084Z,992.01
2018-04-14T09:01:27.088Z,991.98
2018-04-14T09:02:37.104Z,991.99
2018-04-14T09:03:47.112Z,992.02
2018-04-14T09:04:57.120Z,991.99
2018-04-14T09:06:06.862Z,991.98
2018-04-14T09:07:16.889Z,991.99
2018-04-14T09:08:26.631Z,991.91
2018-04-14T09:09:36.108Z,991.96
2018-04-14T09:10:45.841Z,991.96
2018-04-14T09:11:55.419Z,991.94
2018-04-14T09:13:04.889Z,991.93
2018-04-14T09:14:14.902Z,991.9
2018-04-14T09:15:24.638Z,991.89
2018-04-14T09:16:34.387Z,991.92
2018-04-14T09:17:43.595Z,991.91
2018-04-14T09:18:53.603Z,991.89
2018-04-14T09:20:03.345Z,991.87
2018-04-14T09:21:13.099Z,991.83
2018-04-14T09:22:22.836Z,991.84
2018-04-14T09:23:32.847Z,991.82
2018-04-14T09:24:42.867Z,991.77
2018-04-14T09:25:52.609Z,991.77
2018-04-14T09:27:02.359Z,991.79
2018-04-14T09:28:12.115Z,991.81
2018-04-14T09:29:21.864Z,991.83
2018-04-14T09:30:31.337Z,991.86
2018-04-14T09:31:41.346Z,991.84
2018-04-14T09:32:51.101Z,991.84
2018-04-14T09:34:01.114Z,991.84
2018-04-14T09:35:10.420Z,991.78
2018-04-14T09:36:20.433Z,991.78
2018-04-14T09:37:30.448Z,991.8
2018-04-14T09:38:39.929Z,991.69
2018-04-14T09:39:49.944Z,991.72
2018-04-14T09:40:59.954Z,991.68
2018-04-14T09:42:09.961Z,991.72
2018-04-14T09:43:19.976Z,991.73
2018-04-14T09:44:29.723Z,991.7
2018-04-14T09:45:39.195Z,991.7
2018-04-14T09:46:48.934Z,991.67
2018-04-14T09:47:58.673Z,991.67
2018-04-14T09:49:08.153Z,991.65
2018-04-14T09:50:17.893Z,991.63
2018-04-14T09:51:27.899Z,991.6
2018-04-14T09:52:37.104Z,991.61
2018-04-14T09:53:46.575Z,991.62
2018-04-14T09:54:56.315Z,991.61
2018-04-14T09:56:05.785Z,991.6
2018-04-14T09:57:15.526Z,991.63
2018-04-14T09:58:25.264Z,991.65
2018-04-14T09:59:35.275Z,991.73
2018-04-14T10:00:45.017Z,991.66
2018-04-14T10:01:55.027Z,991.7
2018-04-14T10:03:04.766Z,991.69
2018-04-14T10:04:14.244Z,991.68
2018-04-14T10:05:24.261Z,991.64
2018-04-14T10:06:34.003Z,991.66
2018-04-14T10:07:44.013Z,991.64
2018-04-14T10:08:53.751Z,991.6
2018-04-14T10:10:03.764Z,991.54
2018-04-14T10:11:13.775Z,991.54
2018-04-14T10:12:23.524Z,991.52
2018-04-14T10:13:33.537Z,991.54
2018-04-14T10:14:43.556Z,991.51
2018-04-14T10:15:53.037Z,991.47
2018-04-14T10:17:02.782Z,991.48
2018-04-14T10:18:12.254Z,991.47
2018-04-14T10:19:22.264Z,991.46
2018-04-14T10:20:31.742Z,991.49
2018-04-14T10:21:41.498Z,991.52
2018-04-14T10:22:51.239Z,991.54
2018-04-14T10:24:01.243Z,991.59
2018-04-14T10:25:11.246Z,991.61
2018-04-14T10:26:20.716Z,991.52
2018-04-14T10:27:30.720Z,991.5
2018-04-14T10:28:40.729Z,991.44
2018-04-14T10:29:50.198Z,991.41
2018-04-14T10:30:59.679Z,991.42
2018-04-14T10:32:09.424Z,991.43
2018-04-14T10:33:19.632Z,991.45
2018-04-14T10:34:29.110Z,991.43
2018-04-14T10:35:39.114Z,991.45
2018-04-14T10:36:49.173Z,991.45
2018-04-14T10:37:59.289Z,991.41
2018-04-14T10:39:09.393Z,991.45
2018-04-14T10:40:19.145Z,991.45
2018-04-14T10:41:28.889Z,991.45
2018-04-14T10:42:38.940Z,991.44
2018-04-14T10:43:48.729Z,991.46
2018-04-14T10:44:58.307Z,991.47
2018-04-14T10:46:08.319Z,991.43
2018-04-14T10:47:18.327Z,991.46
2018-04-14T10:48:27.792Z,991.46
2018-04-14T10:49:37.813Z,991.48
2018-04-14T10:50:47.835Z,991.44
2018-04-14T10:51:57.850Z,991.43
2018-04-14T10:53:07.878Z,991.39
2018-04-14T10:54:17.354Z,991.38
2018-04-14T10:55:27.101Z,991.34
2018-04-14T10:56:36.855Z,991.36
2018-04-14T10:57:46.332Z,991.35
2018-04-14T10:58:55.807Z,991.35
2018-04-14T11:00:05.552Z,991.34
2018-04-14T11:01:15.558Z,991.31
2018-04-14T11:02:25.577Z,991.29
2018-04-14T11:03:35.319Z,991.31
2018-04-14T11:04:45.061Z,991.28
2018-04-14T11:05:55.066Z,991.23
2018-04-14T11:07:04.544Z,991.22
2018-04-14T11:08:14.288Z,991.25
2018-04-14T11:09:24.032Z,991.21
2018-04-14T11:10:33.820Z,991.17
2018-04-14T11:11:43.837Z,991.14
2018-04-14T11:12:53.849Z,991.15
2018-04-14T11:14:03.859Z,991.16
2018-04-14T11:15:13.610Z,991.18
2018-04-14T11:16:23.517Z,991.16
2018-04-14T11:17:32.454Z,991.17
2018-04-14T11:18:41.934Z,991.19
2018-04-14T11:19:51.687Z,991.23
2018-04-14T11:21:01.700Z,991.26
2018-04-14T11:22:11.721Z,991.21
2018-04-14T11:23:21.463Z,991.23
2018-04-14T11:24:31.203Z,991.16
2018-04-14T11:25:41.216Z,991.18
2018-04-14T11:26:50.702Z,991.18
2018-04-14T11:28:00.452Z,991.15
2018-04-14T11:29:10.224Z,991.1
2018-04-14T11:30:20.235Z,991.1
2018-04-14T11:31:29.770Z,991.09
2018-04-14T11:32:39.465Z,991.05
2018-04-14T11:33:49.492Z,991.08
2018-04-14T11:34:59.247Z,991.05
2018-04-14T11:36:08.999Z,991.08
2018-04-14T11:37:18.746Z,991.07
2018-04-14T11:38:28.777Z,991.11
2018-04-14T11:39:38.261Z,991.09
2018-04-14T11:40:48.013Z,991.02
2018-04-14T11:41:57.767Z,991.06
2018-04-14T11:43:07.786Z,991.07
2018-04-14T11:44:17.273Z,991.08
2018-04-14T11:45:27.300Z,991.1
2018-04-14T11:46:37.075Z,991.09
2018-04-14T11:47:46.288Z,991.06
2018-04-14T11:48:55.887Z,990.96
2018-04-14T11:50:05.115Z,990.97
2018-04-14T11:51:15.144Z,991
2018-04-14T11:52:25.161Z,990.94
2018-04-14T11:53:34.920Z,990.96
2018-04-14T11:54:44.946Z,990.93
2018-04-14T11:55:54.701Z,990.91
2018-04-14T11:57:04.452Z,990.94
2018-04-14T11:58:14.477Z,990.99
2018-04-14T11:59:23.964Z,990.92
2018-04-14T12:00:33.986Z,990.96
2018-04-14T12:01:43.482Z,990.92
2018-04-14T12:02:53.243Z,990.94
2018-04-14T12:04:02.745Z,990.98
2018-04-14T12:05:12.233Z,990.96
2018-04-14T12:06:21.986Z,990.95
2018-04-14T12:07:31.473Z,990.9
2018-04-14T12:08:41.497Z,990.9
2018-04-14T12:09:51.310Z,990.92
2018-04-14T12:11:00.865Z,990.91
2018-04-14T12:12:10.628Z,990.88
2018-04-14T12:13:20.672Z,990.94
2018-04-14T12:14:29.903Z,990.98
2018-04-14T12:15:39.932Z,990.95
2018-04-14T12:16:49.421Z,990.92
2018-04-14T12:17:59.440Z,990.95
2018-04-14T12:19:09.460Z,990.92
2018-04-14T12:20:19.472Z,990.94
2018-04-14T12:21:28.958Z,990.95
2018-04-14T12:22:38.205Z,990.96
2018-04-14T12:23:48.337Z,991.01
2018-04-14T12:24:57.843Z,990.98
2018-04-14T12:26:07.603Z,991.02
2018-04-14T12:27:17.094Z,991.02
2018-04-14T12:28:27.204Z,991.01
2018-04-14T12:29:36.978Z,991.03
2018-04-14T12:30:46.732Z,991.01
2018-04-14T12:31:56.483Z,991
2018-04-14T12:33:06.237Z,990.98
2018-04-14T12:34:15.783Z,990.98
2018-04-14T12:35:25.914Z,990.96
2018-04-14T12:36:35.675Z,990.92
2018-04-14T12:37:45.699Z,990.91
2018-04-14T12:38:55.455Z,990.94
2018-04-14T12:40:04.947Z,990.92
2018-04-14T12:41:14.976Z,990.95
2018-04-14T12:42:25.005Z,990.87
2018-04-14T12:43:34.760Z,990.86
2018-04-14T12:44:43.715Z,990.79
2018-04-14T12:45:53.475Z,990.87
2018-04-14T12:47:03.266Z,990.85
2018-04-14T12:48:12.756Z,990.82
2018-04-14T12:49:22.519Z,990.86
2018-04-14T12:50:32.289Z,990.85
2018-04-14T12:51:42.044Z,990.82
2018-04-14T12:52:51.862Z,990.78
2018-04-14T12:54:01.360Z,990.78
2018-04-14T12:55:10.851Z,990.83
2018-04-14T12:56:20.604Z,990.78
2018-04-14T12:57:30.366Z,990.8
2018-04-14T12:58:40.127Z,990.79
2018-04-14T12:59:49.621Z,990.74
2018-04-14T13:00:59.655Z,990.72
2018-04-14T13:02:08.885Z,990.76
2018-04-14T13:03:18.385Z,990.63
2018-04-14T13:04:28.619Z,990.61
2018-04-14T13:05:38.376Z,990.66
2018-04-14T13:06:48.266Z,990.65
2018-04-14T13:07:57.488Z,990.65
2018-04-14T13:09:07.516Z,990.65
2018-04-14T13:10:17.547Z,990.64
2018-04-14T13:11:27.570Z,990.61
2018-04-14T13:12:36.789Z,990.6
2018-04-14T13:13:46.590Z,990.59
2018-04-14T13:14:56.357Z,990.5
2018-04-14T13:16:06.114Z,990.45
2018-04-14T13:17:16.150Z,990.38
2018-04-14T13:18:25.112Z,990.35
2018-04-14T13:19:34.339Z,990.4
2018-04-14T13:20:44.367Z,990.34
2018-04-14T13:21:53.865Z,990.36
2018-04-14T13:23:03.917Z,990.36
2018-04-14T13:24:13.946Z,990.39
2018-04-14T13:25:23.975Z,990.4
2018-04-14T13:26:34.003Z,990.44
2018-04-14T13:27:43.766Z,990.47
2018-04-14T13:28:53.272Z,990.43
2018-04-14T13:30:03.047Z,990.45
2018-04-14T13:31:13.083Z,990.42
2018-04-14T13:32:22.845Z,990.44
2018-04-14T13:33:32.894Z,990.42
2018-04-14T13:34:42.924Z,990.44
2018-04-14T13:35:52.681Z,990.41
2018-04-14T13:37:02.711Z,990.38
2018-04-14T13:38:12.469Z,990.4
2018-04-14T13:39:22.495Z,990.33
2018-04-14T13:40:32.259Z,990.33
2018-04-14T13:41:42.028Z,990.31
2018-04-14T13:42:52.049Z,990.33
2018-04-14T13:44:01.542Z,990.28
2018-04-14T13:45:11.042Z,990.29
2018-04-14T13:46:20.808Z,990.29
2018-04-14T13:47:30.568Z,990.27
2018-04-14T13:48:40.597Z,990.27
2018-04-14T13:49:50.621Z,990.29
2018-04-14T13:51:00.660Z,990.31
2018-04-14T13:52:10.416Z,990.31
2018-04-14T13:53:20.190Z,990.31
2018-04-14T13:54:29.951Z,990.29
2018-04-14T13:55:39.704Z,990.29
2018-04-14T13:56:49.461Z,990.28
2018-04-14T13:57:59.484Z,990.29
2018-04-14T13:59:09.257Z,990.32
2018-04-14T14:00:18.753Z,990.34
2018-04-14T14:01:28.515Z,990.34
2018-04-14T14:02:38.543Z,990.33
2018-04-14T14:03:48.575Z,990.37
2018-04-14T14:04:58.329Z,990.32
2018-04-14T14:06:08.097Z,990.34
2018-04-14T14:07:17.852Z,990.35
2018-04-14T14:08:27.616Z,990.32
2018-04-14T14:09:37.397Z,990.32
2018-04-14T14:10:46.889Z,990.22
2018-04-14T14:11:56.951Z,990.22
2018-04-14T14:13:06.715Z,990.25
2018-04-14T14:14:16.742Z,990.29
2018-04-14T14:15:26.820Z,990.26
2018-04-14T14:16:36.630Z,990.28
2018-04-14T14:17:45.858Z,990.35
2018-04-14T14:18:55.625Z,990.31
2018-04-14T14:20:05.123Z,990.35
2018-04-14T14:21:15.151Z,990.38
2018-04-14T14:22:24.907Z,990.39
2018-04-14T14:23:34.988Z,990.41
2018-04-14T14:24:44.749Z,990.38
2018-04-14T14:25:54.857Z,990.4
2018-04-14T14:27:04.090Z,990.41
2018-04-14T14:28:13.853Z,990.35
2018-04-14T14:29:23.884Z,990.38
2018-04-14T14:30:33.378Z,990.39
2018-04-14T14:31:43.144Z,990.41
2018-04-14T14:32:52.370Z,990.43
2018-04-14T14:34:01.861Z,990.41
2018-04-14T14:35:11.361Z,990.42
2018-04-14T14:36:21.389Z,990.45